Time;durP1;ratioP1;P1;durP2;ratioP2;P2;SDS_P1;SDS_P2;PMS_P1;PMS_P2;Temp;Humidity;BMP_temperature;BMP_pressure;BME280_temperature;BME280_humidity;BME280_pressure;Samples;Min_cycle;Max_cycle;Signal;HPM_P1;HPM_P2
2022/01/11 00:00:49;;;;;;;16.65;6.22;;;4.80;79.90;;;;;;5064958;28;20071;-84
2022/01/11 00:03:17;;;;;;;21.15;7.53;;;4.80;80.00;;;;;;5068899;28;20029;-84
2022/01/11 00:05:51;;;;;;;17.70;7.47;;;4.90;79.70;;;;;;5061184;28;20044;-84
2022/01/11 00:08:18;;;;;;;17.17;8.02;;;4.80;79.60;;;;;;5063353;28;20039;-84
2022/01/11 00:13:14;;;;;;;14.80;7.55;;;4.50;79.50;;;;;;5061192;28;20411;-85
2022/01/11 00:15:40;;;;;;;19.92;7.75;;;4.30;79.50;;;;;;5066476;28;20027;-84
2022/01/11 00:18:05;;;;;;;15.10;8.60;;;4.40;79.70;;;;;;5068057;28;20024;-84
2022/01/11 00:20:31;;;;;;;13.48;7.10;;;4.40;79.50;;;;;;5062463;28;20033;-84
2022/01/11 00:25:31;;;;;;;9.65;5.38;;;4.50;79.60;;;;;;5069242;28;20510;-83
2022/01/11 00:27:57;;;;;;;9.98;5.40;;;4.50;79.80;;;;;;5060101;28;20013;-84
2022/01/11 00:30:24;;;;;;;23.52;7.15;;;4.60;79.70;;;;;;5060170;28;20024;-83
2022/01/11 00:32:53;;;;;;;8.57;4.72;;;4.50;79.50;;;;;;5065915;28;20111;-83
2022/01/11 00:35:27;;;;;;;10.57;6.05;;;4.50;79.60;;;;;;5061815;28;20044;-82
2022/01/11 00:37:53;;;;;;;13.82;8.25;;;4.60;79.60;;;;;;5061083;28;20020;-83
2022/01/11 00:40:18;;;;;;;15.30;7.63;;;4.50;79.90;;;;;;5063305;28;20563;-83
2022/01/11 00:42:44;;;;;;;15.60;7.78;;;4.50;79.50;;;;;;5068176;28;20029;-83
2022/01/11 00:45:11;;;;;;;12.82;7.25;;;4.50;79.60;;;;;;5061873;28;20028;-83
2022/01/11 00:47:37;;;;;;;14.45;7.70;;;4.50;79.70;;;;;;5060015;28;20055;-83
2022/01/11 00:50:04;;;;;;;22.58;8.57;;;4.40;79.60;;;;;;5064861;28;20520;-84
2022/01/11 00:52:30;;;;;;;13.60;8.23;;;4.40;79.80;;;;;;5067852;28;20021;-84
2022/01/11 00:54:55;;;;;;;13.77;8.73;;;4.50;80.00;;;;;;5062246;28;20020;-85
2022/01/11 00:57:21;;;;;;;14.88;8.45;;;4.50;79.60;;;;;;5061278;28;20021;-84
2022/01/11 00:59:47;;;;;;;10.93;7.03;;;4.40;80.10;;;;;;5066072;28;20030;-83
2022/01/11 01:02:13;;;;;;;22.73;8.20;;;4.40;79.90;;;;;;5065169;28;20387;-84
2022/01/11 01:04:38;;;;;;;19.10;9.57;;;4.40;79.70;;;;;;5067896;28;20106;-84
2022/01/11 01:07:05;;;;;;;13.27;7.40;;;4.20;79.30;;;;;;5062941;28;20031;-84
2022/01/11 01:09:39;;;;;;;12.48;6.45;;;4.10;79.70;;;;;;5067547;28;20432;-84
2022/01/11 01:12:06;;;;;;;17.40;8.10;;;4.10;79.90;;;;;;5060531;28;20021;-84
2022/01/11 01:14:31;;;;;;;12.80;7.35;;;4.10;79.90;;;;;;5060920;28;20406;-85
2022/01/11 01:16:57;;;;;;;11.90;7.13;;;4.20;79.90;;;;;;5063716;28;20029;-85
2022/01/11 01:19:26;;;;;;;40.58;10.60;;;4.30;79.90;;;;;;5059646;28;20025;-84
2022/01/11 01:21:53;;;;;;;12.93;7.50;;;4.20;79.20;;;;;;5074035;28;20055;-86
2022/01/11 01:24:18;;;;;;;16.95;8.65;;;4.10;79.50;;;;;;5064994;28;20063;-85
2022/01/11 01:26:44;;;;;;;30.85;10.07;;;4.00;79.20;;;;;;5055433;28;20032;-85
2022/01/11 01:29:09;;;;;;;15.93;8.68;;;4.00;79.30;;;;;;5053854;28;20044;-87
2022/01/11 01:31:35;;;;;;;43.35;10.40;;;3.80;79.20;;;;;;5060195;28;20376;-86
2022/01/11 01:34:01;;;;;;;33.78;10.38;;;3.80;79.40;;;;;;5067396;28;20475;-87
2022/01/11 01:36:27;;;;;;;13.93;8.20;;;3.70;79.70;;;;;;5062426;28;20029;-86
2022/01/11 01:38:53;;;;;;;18.92;9.82;;;3.70;79.70;;;;;;5061422;28;20052;-86
2022/01/11 01:41:20;;;;;;;13.68;7.55;;;3.50;79.40;;;;;;5063644;28;20052;-86
2022/01/11 01:43:53;;;;;;;24.83;9.38;;;3.50;79.90;;;;;;5066965;28;20036;-87
2022/01/11 01:46:19;;;;;;;11.43;6.57;;;3.40;79.70;;;;;;5062338;28;20093;-86
2022/01/11 01:48:45;;;;;;;45.78;10.30;;;3.40;80.10;;;;;;5066526;28;20029;-85
2022/01/11 01:51:12;;;;;;;15.52;7.47;;;3.30;79.80;;;;;;5066371;28;20032;-87
2022/01/11 01:53:46;;;;;;;29.73;8.40;;;3.20;80.20;;;;;;5060814;28;20039;-86
2022/01/11 01:56:12;;;;;;;7.88;5.38;;;3.20;80.50;;;;;;5055846;28;20112;-86
2022/01/11 01:58:38;;;;;;;12.80;6.95;;;3.40;80.80;;;;;;5065237;28;20033;-85
2022/01/11 02:01:05;;;;;;;50.15;11.32;;;3.60;80.80;;;;;;5067503;28;20024;-86
2022/01/11 02:03:39;;;;;;;10.25;6.88;;;3.70;80.20;;;;;;5058076;28;20059;-86
2022/01/11 02:06:09;;;;;;;18.65;8.65;;;3.60;80.00;;;;;;5061223;28;20044;-88
2022/01/11 02:08:35;;;;;;;10.73;6.47;;;3.50;79.80;;;;;;5062009;28;20020;-88
2022/01/11 02:11:01;;;;;;;19.38;7.97;;;3.50;80.10;;;;;;5065883;28;20025;-89
2022/01/11 02:13:27;;;;;;;18.05;7.55;;;3.50;80.10;;;;;;5069801;28;20462;-88
2022/01/11 02:15:53;;;;;;;11.85;7.90;;;3.50;80.10;;;;;;5062510;28;20028;-89
2022/01/11 02:18:22;;;;;;;10.40;6.00;;;3.50;80.00;;;;;;5070954;28;20070;-90
2022/01/11 02:20:50;;;;;;;14.30;6.15;;;3.60;80.50;;;;;;5072502;28;20056;-89
2022/01/11 02:23:17;;;;;;;14.32;8.30;;;3.80;80.60;;;;;;5079593;28;20107;-87
2022/01/11 02:25:43;;;;;;;14.10;9.02;;;3.90;80.00;;;;;;5077332;28;20499;-87
2022/01/11 02:28:17;;;;;;;32.35;9.10;;;3.80;79.80;;;;;;5072426;28;20033;-87
2022/01/11 02:30:43;;;;;;;15.30;6.32;;;3.70;80.20;;;;;;5072048;28;20046;-86
2022/01/11 02:33:19;;;;;;;7.43;5.13;;;3.70;80.50;;;;;;5069816;28;20073;-87
2022/01/11 02:35:50;;;;;;;8.90;6.00;;;3.80;80.70;;;;;;5054616;28;20033;-85
2022/01/11 02:38:16;;;;;;;32.08;7.82;;;3.90;80.70;;;;;;5070960;28;20032;-86
2022/01/11 02:40:42;;;;;;;7.57;4.78;;;4.00;80.50;;;;;;5069227;28;20074;-86
2022/01/11 02:43:08;;;;;;;20.55;6.60;;;4.00;80.40;;;;;;5057803;28;20029;-83
2022/01/11 02:45:33;;;;;;;11.90;7.18;;;4.00;80.00;;;;;;5061510;28;20035;-83
2022/01/11 02:47:59;;;;;;;12.95;8.52;;;3.80;80.00;;;;;;5070678;28;20486;-83
2022/01/11 02:50:25;;;;;;;20.75;8.48;;;3.60;80.10;;;;;;5068872;28;21686;-85
2022/01/11 02:52:51;;;;;;;10.30;7.13;;;3.60;80.60;;;;;;5066545;28;20091;-88
2022/01/11 02:55:17;;;;;;;16.67;8.70;;;3.50;80.50;;;;;;5068458;28;20033;-89
2022/01/11 02:57:43;;;;;;;13.95;8.30;;;3.50;80.50;;;;;;5054162;28;20467;-89
2022/01/11 03:00:18;;;;;;;16.90;8.05;;;3.50;81.70;;;;;;5057848;28;20029;-84
2022/01/11 03:02:44;;;;;;;12.80;6.85;;;3.60;81.30;;;;;;5062513;28;20033;-87
2022/01/11 03:05:11;;;;;;;15.15;8.85;;;3.70;81.40;;;;;;5060289;28;20429;-86
2022/01/11 03:07:37;;;;;;;20.65;10.93;;;3.70;81.00;;;;;;5059190;28;20020;-85
2022/01/11 03:10:27;;;;;;;15.98;9.07;;;3.70;80.80;;;;;;5061263;28;20095;-87
2022/01/11 03:12:52;;;;;;;15.02;8.55;;;3.60;80.80;;;;;;5059421;28;20086;-87
2022/01/11 03:15:18;;;;;;;16.30;9.43;;;3.70;80.80;;;;;;5064844;28;20028;-84
2022/01/11 03:17:45;;;;;;;12.75;7.03;;;3.70;80.70;;;;;;5066927;28;20035;-85
2022/01/11 03:20:10;;;;;;;30.58;9.25;;;3.70;80.80;;;;;;5070234;28;20540;-84
2022/01/11 03:22:36;;;;;;;14.88;7.68;;;3.80;80.70;;;;;;5075839;28;20036;-87
2022/01/11 03:25:05;;;;;;;50.08;11.23;;;3.80;80.60;;;;;;5070184;28;20503;-85
2022/01/11 03:27:30;;;;;;;13.95;6.75;;;3.80;80.40;;;;;;5058464;28;20053;-83
2022/01/11 03:29:56;;;;;;;17.63;7.25;;;3.90;80.60;;;;;;5062081;28;20502;-82
2022/01/11 03:32:22;;;;;;;21.42;9.80;;;3.90;80.40;;;;;;5066027;28;20395;-83
2022/01/11 03:34:47;;;;;;;19.63;10.65;;;3.80;79.90;;;;;;5058179;28;20040;-83
2022/01/11 03:37:16;;;;;;;16.75;9.45;;;3.70;80.00;;;;;;5065200;28;20066;-85
2022/01/11 03:39:42;;;;;;;12.80;8.32;;;3.60;80.10;;;;;;5059786;28;20031;-85
2022/01/11 03:42:07;;;;;;;20.42;10.25;;;3.60;80.40;;;;;;5068535;28;20024;-84
2022/01/11 03:44:33;;;;;;;17.17;9.07;;;3.60;80.30;;;;;;5060902;28;20032;-85
2022/01/11 03:47:00;;;;;;;14.68;8.63;;;3.70;80.40;;;;;;5058956;28;20025;-85
2022/01/11 03:49:26;;;;;;;15.38;7.70;;;3.70;80.50;;;;;;5058058;28;20402;-87
2022/01/11 03:51:51;;;;;;;16.80;9.90;;;3.80;80.40;;;;;;5067724;28;20028;-85
2022/01/11 03:54:24;;;;;;;15.65;8.85;;;3.80;80.40;;;;;;5048671;28;20024;-84
2022/01/11 03:56:50;;;;;;;19.92;9.57;;;3.70;80.30;;;;;;5063534;28;20028;-84
2022/01/11 03:59:16;;;;;;;14.57;8.40;;;3.60;80.40;;;;;;5064586;28;20027;-84
2022/01/11 04:01:42;;;;;;;13.35;7.90;;;3.60;80.70;;;;;;5060740;28;20078;-84
2022/01/11 04:04:09;;;;;;;12.07;7.18;;;3.70;80.80;;;;;;5068443;28;20032;-83
2022/01/11 04:06:35;;;;;;;12.88;7.90;;;3.80;81.00;;;;;;5060506;28;20112;-84
2022/01/11 04:09:02;;;;;;;18.70;10.77;;;3.70;80.50;;;;;;5068300;28;20736;-84
2022/01/11 04:11:27;;;;;;;11.73;7.82;;;3.70;80.50;;;;;;5055448;28;20418;-83
2022/01/11 04:13:53;;;;;;;12.13;7.70;;;3.60;80.60;;;;;;5067368;28;20074;-84
2022/01/11 04:16:19;;;;;;;12.00;7.63;;;3.60;80.80;;;;;;5063911;28;20064;-83
2022/01/11 04:18:44;;;;;;;10.70;7.40;;;3.70;81.00;;;;;;5064301;28;20028;-87
2022/01/11 04:21:10;;;;;;;13.57;8.88;;;3.70;80.90;;;;;;5063495;28;20038;-87
2022/01/11 04:23:36;;;;;;;12.95;7.38;;;3.60;80.70;;;;;;5065473;28;20048;-87
2022/01/11 04:26:03;;;;;;;15.43;9.95;;;3.60;80.90;;;;;;5054828;28;20115;-86
2022/01/11 04:28:28;;;;;;;13.68;8.55;;;3.60;80.80;;;;;;5058555;28;20016;-85
2022/01/11 04:30:59;;;;;;;9.63;6.28;;;3.60;81.00;;;;;;5068525;28;20020;-86
2022/01/11 04:33:26;;;;;;;14.35;9.40;;;3.70;81.00;;;;;;5059740;28;20047;-89
2022/01/11 04:35:52;;;;;;;20.73;11.70;;;3.70;80.50;;;;;;5064700;28;20017;-88
2022/01/11 04:38:23;;;;;;;18.63;12.18;;;3.60;80.40;;;;;;5065226;28;20102;-87
2022/01/11 04:40:49;;;;;;;16.83;11.05;;;3.50;80.50;;;;;;5062308;28;20028;-86
2022/01/11 04:43:15;;;;;;;14.43;9.20;;;3.40;80.80;;;;;;5060002;28;20021;-87
2022/01/11 04:45:40;;;;;;;13.65;8.65;;;3.40;81.00;;;;;;5061522;28;20515;-88
2022/01/11 04:48:07;;;;;;;16.80;10.45;;;3.60;81.30;;;;;;5058900;28;20036;-87
2022/01/11 04:50:33;;;;;;;20.55;12.00;;;3.70;81.00;;;;;;5064444;28;22160;-88
2022/01/11 04:52:59;;;;;;;15.80;10.00;;;3.70;80.60;;;;;;5068008;28;20048;-87
2022/01/11 04:55:27;;;;;;;15.23;9.77;;;3.60;80.60;;;;;;5064905;28;20040;-85
2022/01/11 04:57:53;;;;;;;22.58;10.75;;;3.40;80.60;;;;;;5056860;28;20029;-87
2022/01/11 05:00:20;;;;;;;13.63;8.70;;;3.50;81.00;;;;;;5062062;28;20055;-87
2022/01/11 05:02:46;;;;;;;12.10;7.55;;;3.50;80.80;;;;;;5062014;28;20060;-87
2022/01/11 05:05:12;;;;;;;21.70;10.13;;;3.60;81.00;;;;;;5064413;28;20071;-87
2022/01/11 05:07:38;;;;;;;10.70;6.93;;;3.60;80.80;;;;;;5055485;28;20021;-86
2022/01/11 05:10:04;;;;;;;14.23;9.75;;;3.60;80.70;;;;;;5058294;28;20017;-85
2022/01/11 05:12:31;;;;;;;18.13;11.82;;;3.60;80.80;;;;;;5060768;28;20029;-86
2022/01/11 05:14:56;;;;;;;13.63;8.48;;;3.50;80.60;;;;;;5067704;28;20021;-87
2022/01/11 05:17:22;;;;;;;12.48;8.30;;;3.60;81.20;;;;;;5050893;28;20070;-85
2022/01/11 05:19:47;;;;;;;16.33;10.73;;;3.60;81.00;;;;;;5058661;28;20033;-86
2022/01/11 05:22:13;;;;;;;12.93;8.32;;;3.50;80.70;;;;;;5065541;28;20020;-85
2022/01/11 05:24:39;;;;;;;18.70;11.63;;;3.50;81.00;;;;;;5066803;28;20108;-83
2022/01/11 05:27:04;;;;;;;17.38;11.23;;;3.70;81.10;;;;;;5065239;28;20502;-83
2022/01/11 05:29:31;;;;;;;15.38;9.48;;;3.70;81.00;;;;;;5066066;28;20056;-83
2022/01/11 05:31:58;;;;;;;21.27;13.80;;;3.80;81.00;;;;;;5072508;28;20099;-84
2022/01/11 05:34:25;;;;;;;16.05;9.05;;;3.70;80.50;;;;;;5061689;28;20029;-83
2022/01/11 05:36:51;;;;;;;19.75;11.35;;;3.60;80.60;;;;;;5072097;28;20525;-83
2022/01/11 05:39:16;;;;;;;15.15;9.32;;;3.50;80.30;;;;;;5062388;28;20021;-85
2022/01/11 05:41:42;;;;;;;25.52;15.57;;;3.60;80.60;;;;;;5070407;28;20028;-86
2022/01/11 05:44:08;;;;;;;17.77;11.18;;;3.50;80.50;;;;;;5057625;28;20056;-85
2022/01/11 05:46:33;;;;;;;14.77;9.57;;;3.50;80.50;;;;;;5069526;28;20352;-87
2022/01/11 05:48:59;;;;;;;13.10;8.60;;;3.40;80.70;;;;;;5061849;28;20028;-85
2022/01/11 05:51:26;;;;;;;13.75;8.43;;;3.50;81.00;;;;;;5064516;28;20025;-87
2022/01/11 05:53:52;;;;;;;13.20;7.85;;;3.50;81.00;;;;;;5064035;28;20044;-86
2022/01/11 05:56:18;;;;;;;17.75;10.93;;;3.60;80.90;;;;;;5062441;28;20113;-82
2022/01/11 05:58:44;;;;;;;16.27;10.38;;;3.60;80.60;;;;;;5063316;28;20340;-85
2022/01/11 06:01:09;;;;;;;20.55;12.65;;;3.60;80.70;;;;;;5065370;28;20017;-85
2022/01/11 06:03:35;;;;;;;15.45;9.45;;;3.60;80.60;;;;;;5070893;28;20024;-86
2022/01/11 06:06:00;;;;;;;13.75;8.77;;;3.50;80.50;;;;;;5069253;28;20028;-86
2022/01/11 06:08:26;;;;;;;16.63;10.38;;;3.70;80.90;;;;;;5069317;28;20021;-87
2022/01/11 06:10:51;;;;;;;17.38;11.55;;;3.80;80.70;;;;;;5069681;28;20364;-85
2022/01/11 06:13:17;;;;;;;18.10;10.85;;;3.80;80.40;;;;;;5070556;28;20104;-85
2022/01/11 06:15:42;;;;;;;17.58;10.55;;;3.80;81.10;;;;;;5066896;28;20117;-84
2022/01/11 06:18:08;;;;;;;16.75;10.68;;;3.60;80.00;;;;;;5070510;28;20059;-82
2022/01/11 06:20:34;;;;;;;19.65;11.98;;;3.40;79.90;;;;;;5065483;28;20431;-82
2022/01/11 06:22:59;;;;;;;12.38;7.60;;;3.30;80.20;;;;;;5076246;28;20031;-86
2022/01/11 06:25:26;;;;;;;18.65;11.18;;;3.20;80.60;;;;;;5064002;28;20055;-86
2022/01/11 06:27:51;;;;;;;14.27;9.18;;;3.10;80.80;;;;;;5063576;28;20403;-85
2022/01/11 06:30:18;;;;;;;17.77;10.40;;;3.10;81.70;;;;;;5069548;28;20025;-85
2022/01/11 06:32:44;;;;;;;19.30;10.23;;;3.00;81.10;;;;;;5067664;28;20017;-85
2022/01/11 06:35:12;;;;;;;23.23;12.82;;;3.00;81.30;;;;;;5069238;28;20495;-85
2022/01/11 06:37:37;;;;;;;15.73;9.50;;;2.90;81.40;;;;;;5063871;28;20020;-86
2022/01/11 06:40:04;;;;;;;16.02;9.60;;;2.90;81.60;;;;;;5058563;28;20025;-85
2022/01/11 06:42:30;;;;;;;15.13;9.25;;;2.80;81.70;;;;;;5065836;28;20467;-85
2022/01/11 06:44:56;;;;;;;15.73;9.55;;;2.90;81.80;;;;;;5069695;28;20052;-85
2022/01/11 06:47:22;;;;;;;16.73;10.05;;;2.80;81.70;;;;;;5064156;28;20392;-86
2022/01/11 06:49:47;;;;;;;16.20;9.30;;;2.80;81.70;;;;;;5070774;28;20073;-86
2022/01/11 06:52:13;;;;;;;8.90;6.15;;;2.90;81.70;;;;;;5068035;28;20099;-84
2022/01/11 06:54:40;;;;;;;12.55;8.05;;;2.90;81.80;;;;;;5064646;28;20021;-85
2022/01/11 06:57:06;;;;;;;21.63;12.93;;;2.80;81.70;;;;;;5068284;28;20399;-83
2022/01/11 06:59:35;;;;;;;24.55;12.52;;;2.80;81.80;;;;;;5066206;28;20047;-86
2022/01/11 07:02:01;;;;;;;18.98;12.20;;;2.70;81.90;;;;;;5060819;28;20020;-83
2022/01/11 07:04:26;;;;;;;18.65;11.02;;;2.60;82.00;;;;;;5061789;28;20115;-85
2022/01/11 07:06:52;;;;;;;18.67;11.60;;;2.60;82.20;;;;;;5057013;28;20936;-87
2022/01/11 07:09:18;;;;;;;18.75;11.55;;;2.50;82.20;;;;;;5059893;28;20020;-84
2022/01/11 07:11:43;;;;;;;19.75;11.98;;;2.50;82.40;;;;;;5068935;28;20040;-86
2022/01/11 07:14:09;;;;;;;12.68;8.32;;;2.50;82.50;;;;;;5060926;28;20017;-87
2022/01/11 07:16:34;;;;;;;15.63;10.05;;;2.50;82.50;;;;;;5059210;28;20383;-83
2022/01/11 07:19:00;;;;;;;23.38;14.45;;;2.50;82.50;;;;;;5061803;28;20074;-86
2022/01/11 07:21:26;;;;;;;17.00;10.75;;;2.50;82.50;;;;;;5075180;28;20537;-88
2022/01/11 07:23:51;;;;;;;22.20;13.13;;;2.40;82.60;;;;;;5065224;28;20094;-85
2022/01/11 07:26:17;;;;;;;18.08;10.88;;;2.50;82.80;;;;;;5057909;28;20072;-87
2022/01/11 07:28:42;;;;;;;21.13;12.18;;;2.50;82.80;;;;;;5061087;28;20086;-91
2022/01/11 07:31:08;;;;;;;25.15;15.45;;;2.50;82.70;;;;;;5058823;28;20485;-89
2022/01/11 07:33:34;;;;;;;18.38;11.35;;;2.40;82.80;;;;;;5066691;28;20016;-86
2022/01/11 07:36:00;;;;;;;25.02;14.55;;;2.40;83.10;;;;;;5070767;28;20020;-85
2022/01/11 07:38:26;;;;;;;20.00;12.32;;;2.40;83.10;;;;;;5080880;28;20028;-85
2022/01/11 07:40:52;;;;;;;21.90;12.65;;;2.30;83.20;;;;;;5076069;28;20035;-86
2022/01/11 07:43:17;;;;;;;21.00;12.13;;;2.30;83.30;;;;;;5066070;28;20036;-87
2022/01/11 07:45:43;;;;;;;23.33;13.52;;;2.40;83.40;;;;;;5059484;28;20040;-88
2022/01/11 07:48:08;;;;;;;22.65;13.45;;;2.40;83.40;;;;;;5067864;28;20503;-89
2022/01/11 07:50:34;;;;;;;26.48;14.18;;;2.40;83.40;;;;;;5053357;28;20029;-84
2022/01/11 07:52:59;;;;;;;19.50;11.50;;;2.40;83.30;;;;;;5068715;28;20028;-86
2022/01/11 07:55:25;;;;;;;21.63;13.55;;;2.40;83.30;;;;;;5071552;28;20036;-85
2022/01/11 07:57:50;;;;;;;25.80;15.30;;;2.30;83.20;;;;;;5070387;28;20375;-83
2022/01/11 08:00:16;;;;;;;30.10;18.17;;;2.30;83.50;;;;;;5072781;28;20107;-90
2022/01/11 08:02:42;;;;;;;25.10;15.60;;;2.10;83.70;;;;;;5066160;28;20048;-87
2022/01/11 08:05:08;;;;;;;38.90;19.75;;;2.10;84.20;;;;;;5064155;28;20091;-86
2022/01/11 08:07:33;;;;;;;25.88;15.85;;;2.00;84.60;;;;;;5067871;28;20028;-88
2022/01/11 08:09:59;;;;;;;39.65;15.73;;;2.00;84.80;;;;;;5061573;28;20050;-87
2022/01/11 08:12:25;;;;;;;33.95;13.30;;;2.10;84.90;;;;;;5062630;28;20058;-85
2022/01/11 08:14:50;;;;;;;24.95;14.30;;;2.00;84.80;;;;;;5075366;28;20025;-86
2022/01/11 08:17:17;;;;;;;21.95;13.38;;;2.00;84.90;;;;;;5077329;28;20386;-93
2022/01/11 08:19:44;;;;;;;17.05;9.98;;;2.10;85.00;;;;;;5069112;28;20024;-83
2022/01/11 08:22:10;;;;;;;17.75;10.07;;;2.10;84.90;;;;;;5070979;28;20031;-84
2022/01/11 08:24:38;;;;;;;21.00;12.52;;;2.10;84.80;;;;;;5068312;28;20184;-84
2022/01/11 08:27:04;;;;;;;21.30;12.98;;;2.10;84.80;;;;;;5072234;28;20032;-87
2022/01/11 08:29:29;;;;;;;17.05;10.50;;;2.20;84.90;;;;;;5064838;28;20085;-91
2022/01/11 08:31:56;;;;;;;20.48;12.20;;;2.20;84.80;;;;;;5069094;28;20033;-88
2022/01/11 08:34:21;;;;;;;20.67;11.43;;;2.20;84.70;;;;;;5069907;28;20084;-83
2022/01/11 08:36:48;;;;;;;18.05;10.82;;;2.30;84.80;;;;;;5067948;28;20443;-84
2022/01/11 08:39:15;;;;;;;22.33;13.73;;;2.30;84.90;;;;;;5064594;28;20502;-82
2022/01/11 08:41:41;;;;;;;17.63;11.63;;;2.30;85.00;;;;;;5069138;28;20064;-84
2022/01/11 08:44:09;;;;;;;16.90;10.48;;;2.30;85.00;;;;;;5054220;28;20020;-80
2022/01/11 08:46:36;;;;;;;17.60;10.95;;;2.40;85.00;;;;;;5051437;28;20085;-84
2022/01/11 08:49:03;;;;;;;17.73;10.48;;;2.40;84.90;;;;;;5057857;28;20021;-91
2022/01/11 08:51:28;;;;;;;20.83;12.63;;;2.50;84.80;;;;;;5061648;28;20119;-83
2022/01/11 08:53:54;;;;;;;18.30;11.68;;;2.50;84.80;;;;;;5055456;28;20601;-85
2022/01/11 08:56:20;;;;;;;21.50;13.55;;;2.50;84.70;;;;;;5061703;28;20486;-85
2022/01/11 08:58:45;;;;;;;19.15;12.35;;;2.40;84.60;;;;;;5070798;28;20044;-83
2022/01/11 09:01:12;;;;;;;16.55;10.65;;;2.40;84.90;;;;;;5071036;28;20483;-90
2022/01/11 09:03:38;;;;;;;15.38;9.57;;;2.50;85.00;;;;;;5066658;28;20108;-82
2022/01/11 09:06:08;;;;;;;15.52;9.63;;;2.50;84.80;;;;;;5075380;28;20062;-86
2022/01/11 09:08:34;;;;;;;14.70;9.90;;;2.60;84.70;;;;;;5067825;28;20020;-87
2022/01/11 09:11:00;;;;;;;24.52;15.02;;;2.70;84.50;;;;;;5080953;28;20029;-81
2022/01/11 09:13:26;;;;;;;12.93;7.90;;;2.70;84.20;;;;;;5071281;28;20174;-83
2022/01/11 09:15:53;;;;;;;17.50;11.10;;;2.70;84.10;;;;;;5068791;28;20029;-85
2022/01/11 09:18:18;;;;;;;14.75;9.32;;;2.80;83.90;;;;;;5067147;28;20487;-82
2022/01/11 09:20:44;;;;;;;16.27;11.15;;;2.90;83.90;;;;;;5068000;28;20036;-82
2022/01/11 09:23:09;;;;;;;15.15;9.88;;;2.90;83.70;;;;;;5068007;28;20115;-82
2022/01/11 09:25:35;;;;;;;15.70;10.88;;;2.90;83.70;;;;;;5067093;28;20060;-85
2022/01/11 09:28:01;;;;;;;17.98;11.43;;;2.90;83.70;;;;;;5065796;28;20625;-78
2022/01/11 09:30:27;;;;;;;22.20;13.98;;;2.90;84.40;;;;;;5066379;28;20028;-78
2022/01/11 09:32:52;;;;;;;22.17;14.18;;;2.80;83.80;;;;;;5070568;28;20402;-80
2022/01/11 09:35:18;;;;;;;15.23;9.80;;;2.80;84.00;;;;;;5063199;28;20029;-79
2022/01/11 09:37:46;;;;;;;16.33;9.95;;;2.80;84.20;;;;;;5067025;28;20017;-78
2022/01/11 09:40:12;;;;;;;20.13;11.93;;;2.80;84.20;;;;;;5065764;28;20521;-79
2022/01/11 09:42:38;;;;;;;15.10;9.80;;;2.80;84.20;;;;;;5057813;28;20029;-79
2022/01/11 09:45:07;;;;;;;21.35;13.05;;;2.90;84.30;;;;;;5057363;28;20368;-80
2022/01/11 09:47:32;;;;;;;19.10;11.98;;;2.90;84.20;;;;;;5067934;28;20031;-83
2022/01/11 09:49:58;;;;;;;15.25;10.48;;;3.00;84.20;;;;;;5060879;28;20550;-79
2022/01/11 09:52:27;;;;;;;14.65;9.38;;;2.90;84.20;;;;;;5064199;28;20040;-78
2022/01/11 09:54:53;;;;;;;22.75;14.10;;;3.00;84.40;;;;;;5065473;28;20024;-81
2022/01/11 09:57:18;;;;;;;21.15;13.32;;;3.00;84.30;;;;;;5061135;28;20162;-78
2022/01/11 09:59:44;;;;;;;15.30;9.80;;;2.90;84.40;;;;;;5065195;28;20103;-79
2022/01/11 10:02:13;;;;;;;19.50;12.23;;;3.00;84.40;;;;;;5065724;28;20032;-84
2022/01/11 10:04:39;;;;;;;18.70;11.63;;;3.00;84.40;;;;;;5065806;28;20123;-80
2022/01/11 10:07:07;;;;;;;21.33;12.90;;;3.00;84.40;;;;;;5056150;28;20028;-82
2022/01/11 10:09:47;;;;;;;20.98;11.77;;;3.00;84.50;;;;;;5062105;28;20033;-81
2022/01/11 10:12:13;;;;;;;21.95;13.95;;;3.00;84.60;;;;;;5064599;28;20025;-82
2022/01/11 10:14:45;;;;;;;20.17;12.25;;;3.00;84.50;;;;;;5063028;28;20132;-81
2022/01/11 10:17:19;;;;;;;21.30;11.88;;;3.00;84.50;;;;;;5062871;28;20545;-80
2022/01/11 10:19:48;;;;;;;21.15;12.40;;;3.10;84.50;;;;;;5066721;28;20056;-81
2022/01/11 10:22:22;;;;;;;18.67;11.43;;;3.10;84.40;;;;;;5067268;28;20059;-81
2022/01/11 10:24:53;;;;;;;21.65;12.52;;;3.10;84.40;;;;;;5061958;28;20476;-78
2022/01/11 10:27:26;;;;;;;17.83;10.32;;;3.10;84.50;;;;;;5069500;28;20122;-83
2022/01/11 10:30:08;;;;;;;21.65;12.20;;;3.20;84.50;;;;;;5070036;28;20170;-80
2022/01/11 10:32:45;;;;;;;23.83;13.70;;;3.20;84.50;;;;;;5067237;28;20565;-84
2022/01/11 10:35:18;;;;;;;22.20;13.88;;;3.20;84.60;;;;;;5060572;28;20028;-86
2022/01/11 10:38:05;;;;;;;24.13;14.65;;;3.20;84.70;;;;;;5071864;28;20104;-83
2022/01/11 10:40:35;;;;;;;23.40;13.98;;;3.10;84.90;;;;;;5064131;28;20745;-82
2022/01/11 10:43:28;;;;;;;21.02;12.15;;;3.10;85.00;;;;;;5062783;28;20522;-81
2022/01/11 10:45:58;;;;;;;21.02;13.05;;;3.10;85.10;;;;;;5057631;28;20107;-80
2022/01/11 10:48:27;;;;;;;19.48;11.88;;;3.10;85.20;;;;;;5060579;28;20024;-78
2022/01/11 10:51:00;;;;;;;17.55;10.88;;;3.10;85.30;;;;;;5062549;28;20059;-79
2022/01/11 10:53:27;;;;;;;;;;;3.20;85.30;;;;;;5064142;28;20550;-80
2022/01/11 10:55:58;;;;;;;18.65;11.43;;;3.30;85.20;;;;;;5071105;28;19953;-80
2022/01/11 10:58:24;;;;;;;23.60;13.25;;;3.30;85.20;;;;;;5058622;28;20045;-88
2022/01/11 11:00:52;;;;;;;21.00;12.00;;;3.30;85.10;;;;;;5054226;28;20098;-82
2022/01/11 11:03:20;;;;;;;15.73;9.00;;;3.40;85.20;;;;;;5070309;28;20021;-80
2022/01/11 11:05:49;;;;;;;17.67;10.25;;;3.50;85.10;;;;;;5065191;28;20040;-83
2022/01/11 11:08:26;;;;;;;22.17;12.73;;;3.60;85.00;;;;;;5056054;28;20025;-83
2022/01/11 11:11:05;;;;;;;20.08;11.57;;;3.60;84.80;;;;;;5067191;28;20087;-82
2022/01/11 11:13:35;;;;;;;20.38;12.02;;;3.60;84.80;;;;;;5058059;28;20068;-81
2022/01/11 11:16:11;;;;;;;21.08;12.68;;;3.70;84.70;;;;;;5056446;28;20425;-81
2022/01/11 11:18:45;;;;;;;20.92;12.55;;;3.80;84.60;;;;;;5070917;28;20486;-81
2022/01/11 11:21:23;;;;;;;18.80;10.93;;;3.80;84.50;;;;;;5065874;28;20039;-83
2022/01/11 11:23:54;;;;;;;15.55;8.85;;;3.90;84.40;;;;;;5065007;28;20060;-84
2022/01/11 11:26:22;;;;;;;14.63;8.18;;;4.00;84.20;;;;;;5062169;28;20045;-84
2022/01/11 11:28:48;;;;;;;15.25;9.05;;;4.00;84.00;;;;;;5067154;28;20482;-84
2022/01/11 11:31:14;;;;;;;18.10;10.25;;;4.10;84.00;;;;;;5061465;28;20035;-84
2022/01/11 11:33:42;;;;;;;18.42;10.82;;;4.00;83.90;;;;;;5066145;28;20082;-81
2022/01/11 11:36:11;;;;;;;19.23;10.50;;;4.10;84.10;;;;;;5063978;28;20824;-81
2022/01/11 11:38:43;;;;;;;15.25;8.90;;;4.20;84.10;;;;;;5064572;28;20025;-82
2022/01/11 11:41:10;;;;;;;23.75;12.70;;;4.30;83.90;;;;;;5064310;28;20028;-81
2022/01/11 11:43:37;;;;;;;23.38;12.40;;;4.20;83.80;;;;;;5061890;28;20024;-82
2022/01/11 11:46:02;;;;;;;23.13;12.90;;;4.20;83.80;;;;;;5060004;28;20131;-82
2022/01/11 11:48:28;;;;;;;23.50;12.40;;;4.30;83.80;;;;;;5062931;28;20099;-82
2022/01/11 11:51:02;;;;;;;21.45;11.40;;;4.30;83.70;;;;;;5063373;28;20028;-82
2022/01/11 11:53:33;;;;;;;16.80;9.65;;;4.30;83.70;;;;;;5064072;28;20009;-81
2022/01/11 11:56:14;;;;;;;21.52;11.77;;;4.40;83.60;;;;;;5065825;28;20024;-77
2022/01/11 11:58:45;;;;;;;23.15;12.30;;;4.40;83.40;;;;;;5061099;28;20017;-78
2022/01/11 12:01:42;;;;;;;22.75;12.73;;;4.40;83.20;;;;;;5062300;28;20501;-77
2022/01/11 12:04:27;;;;;;;17.92;9.98;;;4.50;83.10;;;;;;5063930;28;20032;-84
2022/01/11 12:06:55;;;;;;;18.35;10.45;;;4.50;83.00;;;;;;5061145;28;21074;-80
2022/01/11 12:09:22;;;;;;;21.48;12.23;;;4.50;82.80;;;;;;5066365;28;20035;-79
2022/01/11 12:11:50;;;;;;;21.02;11.25;;;4.50;82.70;;;;;;5055457;28;20725;-78
2022/01/11 12:14:33;;;;;;;17.05;9.75;;;4.60;82.70;;;;;;5064492;28;20035;-80
2022/01/11 12:17:23;;;;;;;19.10;10.80;;;4.60;82.70;;;;;;5064301;28;21692;-81
2022/01/11 12:19:56;;;;;;;17.00;9.63;;;4.60;82.50;;;;;;5068648;28;20024;-76
2022/01/11 12:22:28;;;;;;;15.65;9.18;;;4.70;82.50;;;;;;5063154;28;20111;-76
2022/01/11 12:24:56;;;;;;;20.60;12.25;;;4.70;82.20;;;;;;5057262;28;20029;-75
2022/01/11 12:27:23;;;;;;;16.98;10.65;;;4.70;82.50;;;;;;5069707;28;20397;-75
2022/01/11 12:29:58;;;;;;;19.85;11.85;;;4.70;81.50;;;;;;5066103;28;20040;-76
2022/01/11 12:32:26;;;;;;;20.80;11.18;;;4.70;81.30;;;;;;5061018;28;20577;-77
2022/01/11 12:34:58;;;;;;;20.45;11.27;;;4.70;81.30;;;;;;5066664;28;20115;-77
2022/01/11 12:37:34;;;;;;;17.40;9.90;;;4.70;81.20;;;;;;5079021;28;20024;-77
2022/01/11 12:40:20;;;;;;;16.42;10.02;;;4.80;81.20;;;;;;5078222;28;20028;-77
2022/01/11 12:43:00;;;;;;;18.13;10.80;;;4.80;81.10;;;;;;5063275;28;20025;-79
2022/01/11 12:46:10;;;;;;;17.17;10.65;;;4.80;80.80;;;;;;5069341;28;20040;-80
2022/01/11 12:48:42;;;;;;;19.50;10.45;;;4.80;80.70;;;;;;5072319;28;20048;-80
2022/01/11 12:51:22;;;;;;;20.42;11.77;;;4.90;80.50;;;;;;5065389;28;20031;-78